KRH649R EHAM-EGLL
Flight info
| Callsign | KRH649R |
|---|---|
| Flight time | 0h 45m |
| Altitude | 24000 |
| Route | IDRID L980 LOGAN |
| Aircraft | A21N/M-SDE2E3FGHIRWXY/LB1 |
Departure
| Time | 2026-05-05 18:56 |
|---|---|
| Airport | Amsterdam Airport Schiphol (EHAM) |
Arrival
| Time | 2026-05-05 19:41 |
|---|---|
| Airport | London Heathrow Airport (EGLL) |
| Time | Latitude | Longitude | Altitude | Speed | Heading |
|---|---|---|---|---|---|
| 2026-05-05 18:33 | 52.31338 | 4.75299 | 0 ft | 0 kts | 266° |
| 2026-05-05 18:44 | 52.31339 | 4.75311 | 0 ft | 2 kts | 266° |
| 2026-05-05 18:44 | 52.31340 | 4.75336 | 0 ft | 2 kts | 266° |
| 2026-05-05 18:44 | 52.31341 | 4.75360 | 0 ft | 2 kts | 267° |
| 2026-05-05 18:45 | 52.31342 | 4.75385 | 0 ft | 2 kts | 266° |
| 2026-05-05 18:45 | 52.31340 | 4.75408 | 0 ft | 2 kts | 309° |
| 2026-05-05 18:45 | 52.31329 | 4.75420 | 0 ft | 0 kts | 352° |
| 2026-05-05 18:45 | 52.31323 | 4.75420 | 0 ft | 1 kts | 359° |
| 2026-05-05 18:46 | 52.31320 | 4.75420 | 0 ft | 0 kts | 357° |
| 2026-05-05 18:47 | 52.31338 | 4.75419 | 0 ft | 6 kts | 358° |
| 2026-05-05 18:47 | 52.31392 | 4.75415 | 0 ft | 6 kts | 357° |
| 2026-05-05 18:47 | 52.31458 | 4.75409 | 0 ft | 8 kts | 357° |
| 2026-05-05 18:48 | 52.31509 | 4.75350 | 0 ft | 10 kts | 281° |
| 2026-05-05 18:48 | 52.31507 | 4.75225 | 0 ft | 18 kts | 266° |
| 2026-05-05 18:48 | 52.31492 | 4.74897 | 0 ft | 29 kts | 268° |
| 2026-05-05 18:48 | 52.31484 | 4.74568 | 0 ft | 28 kts | 265° |
| 2026-05-05 18:49 | 52.31474 | 4.74324 | 0 ft | 19 kts | 266° |
| 2026-05-05 18:49 | 52.31411 | 4.74148 | 0 ft | 20 kts | 198° |
| 2026-05-05 18:49 | 52.31265 | 4.74123 | 0 ft | 22 kts | 183° |
| 2026-05-05 18:49 | 52.31103 | 4.74108 | 0 ft | 23 kts | 186° |
| 2026-05-05 18:50 | 52.30936 | 4.74091 | 0 ft | 24 kts | 182° |
| 2026-05-05 18:50 | 52.30777 | 4.74079 | 0 ft | 18 kts | 184° |
| 2026-05-05 18:50 | 52.30653 | 4.74067 | 0 ft | 17 kts | 183° |
| 2026-05-05 18:50 | 52.30530 | 4.74057 | 0 ft | 17 kts | 184° |
| 2026-05-05 18:51 | 52.30436 | 4.74048 | 0 ft | 9 kts | 182° |
| 2026-05-05 18:51 | 52.30389 | 4.74045 | 0 ft | 5 kts | 184° |
| 2026-05-05 18:51 | 52.30347 | 4.74038 | 0 ft | 6 kts | 189° |
| 2026-05-05 18:51 | 52.30328 | 4.74031 | 0 ft | 0 kts | 195° |
| 2026-05-05 18:52 | 52.30321 | 4.74028 | 0 ft | 1 kts | 199° |
| 2026-05-05 18:52 | 52.30306 | 4.74018 | 0 ft | 2 kts | 207° |
| 2026-05-05 18:52 | 52.30289 | 4.73999 | 0 ft | 3 kts | 214° |
| 2026-05-05 18:53 | 52.30274 | 4.73982 | 0 ft | 0 kts | 217° |
| 2026-05-05 18:53 | 52.30270 | 4.73977 | 0 ft | 1 kts | 217° |
| 2026-05-05 18:53 | 52.30259 | 4.73964 | 0 ft | 2 kts | 217° |
| 2026-05-05 18:53 | 52.30240 | 4.73940 | 0 ft | 5 kts | 218° |
| 2026-05-05 18:54 | 52.30217 | 4.73910 | 0 ft | 0 kts | 221° |
| 2026-05-05 18:54 | 52.30213 | 4.73903 | 0 ft | 3 kts | 222° |
| 2026-05-05 18:54 | 52.30190 | 4.73843 | 0 ft | 9 kts | 257° |
| 2026-05-05 18:54 | 52.30206 | 4.73744 | 0 ft | 7 kts | 321° |
| 2026-05-05 18:55 | 52.30235 | 4.73736 | 0 ft | 0 kts | 4° |
| 2026-05-05 18:55 | 52.30251 | 4.73738 | 0 ft | 18 kts | 4° |
| 2026-05-05 18:55 | 52.30696 | 4.73783 | 0 ft | 105 kts | 2° |
| 2026-05-05 18:56 | 52.31662 | 4.73869 | 93 ft | 165 kts | 7° |
| 2026-05-05 18:56 | 52.32797 | 4.73969 | 1022 ft | 164 kts | 1° |
| 2026-05-05 18:56 | 52.33815 | 4.73412 | 2022 ft | 166 kts | 324° |
| 2026-05-05 18:56 | 52.34540 | 4.71839 | 2714 ft | 188 kts | 307° |
| 2026-05-05 18:57 | 52.35493 | 4.70423 | 3562 ft | 189 kts | 341° |
| 2026-05-05 18:57 | 52.36843 | 4.70013 | 4035 ft | 219 kts | 360° |
| 2026-05-05 18:57 | 52.38499 | 4.69848 | 4412 ft | 259 kts | 351° |
| 2026-05-05 18:57 | 52.40362 | 4.68951 | 4801 ft | 297 kts | 343° |
| 2026-05-05 18:58 | 52.42204 | 4.67907 | 5310 ft | 265 kts | 342° |
| 2026-05-05 18:58 | 52.43901 | 4.66937 | 5797 ft | 259 kts | 342° |
| 2026-05-05 18:58 | 52.45599 | 4.65973 | 6056 ft | 259 kts | 342° |
| 2026-05-05 18:58 | 52.47316 | 4.65008 | 6523 ft | 262 kts | 342° |
| 2026-05-05 18:59 | 52.49026 | 4.64056 | 6994 ft | 264 kts | 342° |
| 2026-05-05 18:59 | 52.50780 | 4.63085 | 7472 ft | 267 kts | 341° |
| 2026-05-05 18:59 | 52.52370 | 4.61539 | 7922 ft | 273 kts | 313° |
| 2026-05-05 18:59 | 52.53239 | 4.58770 | 8401 ft | 280 kts | 282° |
| 2026-05-05 19:00 | 52.53187 | 4.55546 | 8931 ft | 290 kts | 255° |
| 2026-05-05 19:00 | 52.52242 | 4.52652 | 9828 ft | 293 kts | 232° |
| 2026-05-05 19:00 | 52.50941 | 4.50106 | 10710 ft | 296 kts | 230° |
| 2026-05-05 19:00 | 52.49570 | 4.47484 | 11171 ft | 313 kts | 230° |
| 2026-05-05 19:01 | 52.48124 | 4.44688 | 11569 ft | 331 kts | 230° |
| 2026-05-05 19:01 | 52.46601 | 4.41710 | 11939 ft | 349 kts | 231° |
| 2026-05-05 19:01 | 52.45010 | 4.38577 | 12286 ft | 367 kts | 231° |
| 2026-05-05 19:01 | 52.43369 | 4.35325 | 12742 ft | 373 kts | 231° |
| 2026-05-05 19:02 | 52.41704 | 4.32022 | 12899 ft | 374 kts | 230° |
| 2026-05-05 19:02 | 52.40060 | 4.28760 | 12903 ft | 373 kts | 230° |
| 2026-05-05 19:02 | 52.38429 | 4.25525 | 12904 ft | 373 kts | 230° |
| 2026-05-05 19:02 | 52.36776 | 4.22248 | 12905 ft | 372 kts | 230° |
| 2026-05-05 19:03 | 52.35132 | 4.18986 | 12906 ft | 372 kts | 230° |
| 2026-05-05 19:03 | 52.33476 | 4.15703 | 12906 ft | 372 kts | 230° |
| 2026-05-05 19:03 | 52.31835 | 4.12458 | 12905 ft | 372 kts | 230° |
| 2026-05-05 19:03 | 52.30165 | 4.09162 | 12898 ft | 372 kts | 230° |
| 2026-05-05 19:04 | 52.28531 | 4.05938 | 12892 ft | 372 kts | 230° |
| 2026-05-05 19:04 | 52.26878 | 4.02685 | 12888 ft | 372 kts | 230° |
| 2026-05-05 19:04 | 52.25210 | 3.99405 | 12895 ft | 372 kts | 230° |
| 2026-05-05 19:04 | 52.23554 | 3.96154 | 12904 ft | 372 kts | 230° |
| 2026-05-05 19:05 | 52.21899 | 3.92912 | 12907 ft | 373 kts | 231° |
| 2026-05-05 19:05 | 52.20244 | 3.89670 | 12934 ft | 376 kts | 231° |
| 2026-05-05 19:05 | 52.18557 | 3.86370 | 13395 ft | 383 kts | 231° |
| 2026-05-05 19:05 | 52.16865 | 3.83065 | 14257 ft | 383 kts | 231° |
| 2026-05-05 19:06 | 52.15725 | 3.80839 | 14783 ft | 385 kts | 231° |
| 2026-05-05 19:06 | 52.13432 | 3.76366 | 15713 ft | 390 kts | 230° |
| 2026-05-05 19:06 | 52.11676 | 3.72945 | 16398 ft | 394 kts | 230° |
| 2026-05-05 19:06 | 52.09937 | 3.69551 | 17030 ft | 398 kts | 230° |
| 2026-05-05 19:07 | 52.08150 | 3.66077 | 17684 ft | 401 kts | 230° |
| 2026-05-05 19:07 | 52.06358 | 3.62605 | 18335 ft | 404 kts | 230° |
| 2026-05-05 19:07 | 52.04554 | 3.59114 | 18970 ft | 407 kts | 230° |
| 2026-05-05 19:07 | 52.02740 | 3.55606 | 19596 ft | 409 kts | 230° |
| 2026-05-05 19:08 | 52.00893 | 3.52042 | 20215 ft | 411 kts | 230° |
| 2026-05-05 19:08 | 51.99097 | 3.48404 | 20812 ft | 414 kts | 232° |
| 2026-05-05 19:08 | 51.97397 | 3.44660 | 21383 ft | 416 kts | 233° |
| 2026-05-05 19:08 | 51.95682 | 3.40864 | 21917 ft | 419 kts | 233° |
| 2026-05-05 19:09 | 51.93972 | 3.37080 | 22444 ft | 422 kts | 233° |
| 2026-05-05 19:09 | 51.92229 | 3.33232 | 22979 ft | 424 kts | 232° |
| 2026-05-05 19:09 | 51.90483 | 3.29385 | 23498 ft | 426 kts | 232° |
| 2026-05-05 19:09 | 51.88731 | 3.25530 | 23859 ft | 428 kts | 232° |
| 2026-05-05 19:10 | 51.86988 | 3.21558 | 23918 ft | 429 kts | 237° |
| 2026-05-05 19:10 | 51.85609 | 3.17248 | 23921 ft | 433 kts | 247° |
| 2026-05-05 19:10 | 51.84698 | 3.12584 | 23926 ft | 435 kts | 257° |
| 2026-05-05 19:10 | 51.84241 | 3.07757 | 23931 ft | 436 kts | 262° |
| 2026-05-05 19:11 | 51.83931 | 3.02922 | 23931 ft | 436 kts | 263° |
| 2026-05-05 19:11 | 51.83640 | 2.98036 | 23930 ft | 436 kts | 263° |
| 2026-05-05 19:11 | 51.83343 | 2.93173 | 23930 ft | 436 kts | 263° |
| 2026-05-05 19:11 | 51.83037 | 2.88327 | 23930 ft | 436 kts | 263° |
| 2026-05-05 19:12 | 51.82720 | 2.83460 | 23930 ft | 436 kts | 263° |
| 2026-05-05 19:12 | 51.82395 | 2.78572 | 23930 ft | 436 kts | 263° |
| 2026-05-05 19:12 | 51.82066 | 2.73692 | 23930 ft | 436 kts | 263° |
| 2026-05-05 19:12 | 51.81732 | 2.68801 | 23930 ft | 436 kts | 263° |
| 2026-05-05 19:13 | 51.78400 | 2.21216 | 23926 ft | 435 kts | 263° |
| 2026-05-05 19:13 | 51.78093 | 2.16330 | 23929 ft | 435 kts | 264° |
| 2026-05-05 19:13 | 51.77812 | 2.11495 | 23930 ft | 434 kts | 264° |
| 2026-05-05 19:13 | 51.77533 | 2.06651 | 23930 ft | 433 kts | 264° |
| 2026-05-05 19:14 | 51.77252 | 2.01838 | 23930 ft | 433 kts | 264° |
| 2026-05-05 19:14 | 51.76966 | 1.96991 | 23930 ft | 433 kts | 264° |
| 2026-05-05 19:14 | 51.76673 | 1.92098 | 23930 ft | 433 kts | 264° |
| 2026-05-05 19:14 | 51.76384 | 1.87314 | 23930 ft | 433 kts | 264° |
| 2026-05-05 19:15 | 51.76089 | 1.82484 | 23930 ft | 433 kts | 264° |
| 2026-05-05 19:15 | 51.75793 | 1.77664 | 23930 ft | 433 kts | 264° |
| 2026-05-05 19:15 | 51.75492 | 1.72798 | 23929 ft | 433 kts | 264° |
| 2026-05-05 19:15 | 51.75191 | 1.68003 | 23930 ft | 433 kts | 264° |
| 2026-05-05 19:16 | 51.74884 | 1.63118 | 23821 ft | 434 kts | 264° |
| 2026-05-05 19:16 | 51.74579 | 1.58321 | 23570 ft | 433 kts | 264° |
| 2026-05-05 19:16 | 51.74273 | 1.53510 | 23309 ft | 432 kts | 264° |
| 2026-05-05 19:16 | 51.73969 | 1.48744 | 22947 ft | 424 kts | 264° |
| 2026-05-05 19:17 | 51.73666 | 1.44041 | 22474 ft | 418 kts | 264° |
| 2026-05-05 19:17 | 51.73368 | 1.39444 | 21918 ft | 415 kts | 264° |
| 2026-05-05 19:17 | 51.73067 | 1.34831 | 21315 ft | 412 kts | 264° |
| 2026-05-05 19:17 | 51.72765 | 1.30223 | 20702 ft | 410 kts | 264° |
| 2026-05-05 19:18 | 51.72465 | 1.25666 | 20087 ft | 408 kts | 263° |
| 2026-05-05 19:18 | 51.72161 | 1.21082 | 19464 ft | 403 kts | 263° |
| 2026-05-05 19:18 | 51.71867 | 1.16692 | 18868 ft | 396 kts | 263° |
| 2026-05-05 19:18 | 51.71566 | 1.12228 | 18261 ft | 390 kts | 263° |
| 2026-05-05 19:19 | 51.71273 | 1.07915 | 17671 ft | 384 kts | 264° |
| 2026-05-05 19:19 | 51.70976 | 1.03567 | 17077 ft | 378 kts | 264° |
| 2026-05-05 19:19 | 51.70688 | 0.99375 | 16508 ft | 372 kts | 264° |
| 2026-05-05 19:19 | 51.70408 | 0.95283 | 15951 ft | 367 kts | 264° |
| 2026-05-05 19:20 | 51.70128 | 0.91212 | 15435 ft | 361 kts | 264° |
| 2026-05-05 19:20 | 51.70068 | 0.90335 | 15322 ft | 359 kts | 264° |
| 2026-05-05 19:20 | 51.69795 | 0.86396 | 14769 ft | 347 kts | 264° |
| 2026-05-05 19:20 | 51.69530 | 0.82596 | 14192 ft | 332 kts | 264° |
| 2026-05-05 19:21 | 51.69277 | 0.78977 | 13627 ft | 323 kts | 264° |
| 2026-05-05 19:21 | 51.69027 | 0.75453 | 13091 ft | 317 kts | 264° |
| 2026-05-05 19:21 | 51.68776 | 0.71914 | 12626 ft | 315 kts | 264° |
| 2026-05-05 19:21 | 51.68526 | 0.68401 | 12201 ft | 313 kts | 264° |
| 2026-05-05 19:22 | 51.68283 | 0.64988 | 11798 ft | 307 kts | 264° |
| 2026-05-05 19:22 | 51.68041 | 0.61616 | 11414 ft | 300 kts | 264° |
| 2026-05-05 19:22 | 51.67804 | 0.58317 | 11035 ft | 295 kts | 264° |
| 2026-05-05 19:22 | 51.67567 | 0.55050 | 10662 ft | 290 kts | 264° |
| 2026-05-05 19:23 | 51.67334 | 0.51850 | 10294 ft | 285 kts | 265° |
| 2026-05-05 19:23 | 51.67106 | 0.48704 | 9933 ft | 279 kts | 265° |
| 2026-05-05 19:23 | 51.66883 | 0.45652 | 9600 ft | 274 kts | 265° |
| 2026-05-05 19:23 | 51.66662 | 0.42622 | 9272 ft | 268 kts | 265° |
| 2026-05-05 19:24 | 51.66448 | 0.39702 | 9026 ft | 261 kts | 265° |
| 2026-05-05 19:24 | 51.66239 | 0.36873 | 8959 ft | 251 kts | 265° |
| 2026-05-05 19:24 | 51.66031 | 0.34057 | 8958 ft | 251 kts | 264° |
| 2026-05-05 19:24 | 51.65031 | 0.20674 | 8970 ft | 252 kts | 264° |
| 2026-05-05 19:25 | 51.64830 | 0.17869 | 8962 ft | 251 kts | 265° |
| 2026-05-05 19:25 | 51.64633 | 0.15060 | 8954 ft | 251 kts | 265° |
| 2026-05-05 19:25 | 51.64434 | 0.12216 | 8946 ft | 251 kts | 265° |
| 2026-05-05 19:25 | 51.64240 | 0.09429 | 8941 ft | 251 kts | 265° |
| 2026-05-05 19:26 | 51.64043 | 0.06619 | 8938 ft | 251 kts | 265° |
| 2026-05-05 19:26 | 51.63847 | 0.03824 | 8937 ft | 251 kts | 265° |
| 2026-05-05 19:26 | 51.63652 | 0.01034 | 8936 ft | 251 kts | 265° |
| 2026-05-05 19:26 | 51.63456 | -0.01758 | 8935 ft | 251 kts | 265° |
| 2026-05-05 19:27 | 51.63256 | -0.04582 | 8935 ft | 251 kts | 265° |
| 2026-05-05 19:27 | 51.63059 | -0.07367 | 8902 ft | 252 kts | 265° |
| 2026-05-05 19:27 | 51.62859 | -0.10173 | 8619 ft | 251 kts | 265° |
| 2026-05-05 19:27 | 51.62660 | -0.12928 | 8312 ft | 250 kts | 265° |
| 2026-05-05 19:28 | 51.62461 | -0.15642 | 7992 ft | 247 kts | 265° |
| 2026-05-05 19:28 | 51.62260 | -0.18364 | 7942 ft | 247 kts | 265° |
| 2026-05-05 19:28 | 51.62056 | -0.21110 | 7938 ft | 248 kts | 265° |
| 2026-05-05 19:28 | 51.61848 | -0.23909 | 7936 ft | 248 kts | 265° |
| 2026-05-05 19:29 | 51.61644 | -0.26636 | 7936 ft | 248 kts | 265° |
| 2026-05-05 19:29 | 51.61433 | -0.29415 | 7935 ft | 248 kts | 265° |
| 2026-05-05 19:29 | 51.61224 | -0.32139 | 7935 ft | 248 kts | 265° |
| 2026-05-05 19:29 | 51.61010 | -0.34920 | 7935 ft | 248 kts | 265° |
| 2026-05-05 19:30 | 51.60799 | -0.37650 | 7935 ft | 248 kts | 265° |
| 2026-05-05 19:30 | 51.60586 | -0.40421 | 7935 ft | 248 kts | 265° |
| 2026-05-05 19:30 | 51.60372 | -0.43192 | 7935 ft | 248 kts | 265° |
| 2026-05-05 19:30 | 51.60159 | -0.45948 | 7935 ft | 248 kts | 265° |
| 2026-05-05 19:31 | 51.59946 | -0.48695 | 7935 ft | 248 kts | 265° |
| 2026-05-05 19:31 | 51.59732 | -0.51448 | 7935 ft | 248 kts | 265° |
| 2026-05-05 19:31 | 51.59519 | -0.54196 | 7935 ft | 248 kts | 265° |
| 2026-05-05 19:31 | 51.59305 | -0.56947 | 7935 ft | 248 kts | 265° |
| 2026-05-05 19:32 | 51.59089 | -0.59716 | 7876 ft | 248 kts | 265° |
| 2026-05-05 19:32 | 51.58873 | -0.62481 | 7405 ft | 248 kts | 265° |
| 2026-05-05 19:32 | 51.58660 | -0.65206 | 6880 ft | 245 kts | 264° |
| 2026-05-05 19:32 | 51.58448 | -0.67913 | 6326 ft | 244 kts | 264° |
| 2026-05-05 19:33 | 51.58239 | -0.70583 | 5732 ft | 244 kts | 264° |
| 2026-05-05 19:33 | 51.58030 | -0.73253 | 5184 ft | 242 kts | 264° |
| 2026-05-05 19:33 | 51.57824 | -0.75921 | 4632 ft | 240 kts | 264° |
| 2026-05-05 19:33 | 51.57615 | -0.78558 | 4161 ft | 235 kts | 264° |
| 2026-05-05 19:34 | 51.57406 | -0.81156 | 4007 ft | 235 kts | 264° |
| 2026-05-05 19:34 | 51.57194 | -0.83789 | 4009 ft | 236 kts | 264° |
| 2026-05-05 19:34 | 51.56724 | -0.86275 | 3989 ft | 235 kts | 238° |
| 2026-05-05 19:35 | 51.54154 | -0.88516 | 4004 ft | 207 kts | 184° |
| 2026-05-05 19:35 | 51.52715 | -0.88626 | 4016 ft | 209 kts | 179° |
| 2026-05-05 19:35 | 51.51305 | -0.88216 | 3999 ft | 206 kts | 148° |
| 2026-05-05 19:35 | 51.50261 | -0.86706 | 4022 ft | 203 kts | 125° |
| 2026-05-05 19:36 | 51.49454 | -0.84863 | 4022 ft | 202 kts | 120° |
| 2026-05-05 19:36 | 51.48694 | -0.82952 | 4019 ft | 202 kts | 119° |
| 2026-05-05 19:36 | 51.48077 | -0.80960 | 3901 ft | 198 kts | 107° |
| 2026-05-05 19:36 | 51.47739 | -0.78857 | 3611 ft | 196 kts | 95° |
| 2026-05-05 19:37 | 51.47636 | -0.76679 | 3333 ft | 194 kts | 87° |
| 2026-05-05 19:37 | 51.47668 | -0.74525 | 3261 ft | 193 kts | 85° |
| 2026-05-05 19:37 | 51.47709 | -0.72410 | 3008 ft | 185 kts | 86° |
| 2026-05-05 19:37 | 51.47728 | -0.70422 | 2793 ft | 174 kts | 86° |
| 2026-05-05 19:38 | 51.47733 | -0.68529 | 2538 ft | 167 kts | 87° |
| 2026-05-05 19:38 | 51.47731 | -0.66671 | 2299 ft | 164 kts | 87° |
| 2026-05-05 19:38 | 51.47729 | -0.64850 | 2074 ft | 164 kts | 87° |
| 2026-05-05 19:38 | 51.47728 | -0.63009 | 1854 ft | 164 kts | 87° |
| 2026-05-05 19:39 | 51.47728 | -0.61203 | 1644 ft | 163 kts | 87° |
| 2026-05-05 19:39 | 51.47729 | -0.59404 | 1428 ft | 155 kts | 87° |
| 2026-05-05 19:39 | 51.47729 | -0.57747 | 1192 ft | 145 kts | 87° |
| 2026-05-05 19:39 | 51.47727 | -0.56138 | 1018 ft | 143 kts | 87° |
| 2026-05-05 19:40 | 51.47726 | -0.54536 | 857 ft | 143 kts | 85° |
| 2026-05-05 19:40 | 51.47736 | -0.52941 | 643 ft | 144 kts | 86° |
| 2026-05-05 19:40 | 51.47745 | -0.51327 | 477 ft | 146 kts | 86° |
| 2026-05-05 19:40 | 51.47747 | -0.49695 | 261 ft | 145 kts | 86° |
| 2026-05-05 19:41 | 51.47749 | -0.48087 | 100 ft | 141 kts | 85° |
| 2026-05-05 19:41 | 51.47757 | -0.46684 | 92 ft | 103 kts | 92° |
| 2026-05-05 19:41 | 51.47761 | -0.45884 | 92 ft | 51 kts | 89° |
| 2026-05-05 19:41 | 51.47709 | -0.45488 | 92 ft | 21 kts | 154° |
| 2026-05-05 19:42 | 51.47632 | -0.45469 | 92 ft | 0 kts | 180° |
| 2026-05-05 19:42 | 51.47628 | -0.45469 | 92 ft | 1 kts | 180° |
| 2026-05-05 19:42 | 51.47624 | -0.45469 | 92 ft | 0 kts | 180° |
| 2026-05-05 19:42 | 51.47619 | -0.45469 | 92 ft | 0 kts | 180° |
| 2026-05-05 19:43 | 51.47618 | -0.45469 | 92 ft | 0 kts | 180° |
| 2026-05-05 19:43 | 51.47603 | -0.45470 | 92 ft | 4 kts | 180° |
| 2026-05-05 19:43 | 51.47555 | -0.45471 | 92 ft | 9 kts | 181° |
| 2026-05-05 19:43 | 51.47510 | -0.45554 | 92 ft | 13 kts | 265° |
| 2026-05-05 19:44 | 51.47513 | -0.45723 | 92 ft | 17 kts | 275° |
| 2026-05-05 19:44 | 51.47516 | -0.45931 | 92 ft | 20 kts | 269° |
| 2026-05-05 19:44 | 51.47516 | -0.46172 | 92 ft | 22 kts | 267° |
| 2026-05-05 19:44 | 51.47517 | -0.46426 | 92 ft | 22 kts | 271° |
| 2026-05-05 19:45 | 51.47517 | -0.46602 | 92 ft | 14 kts | 268° |
| 2026-05-05 19:45 | 51.47492 | -0.46742 | 92 ft | 13 kts | 194° |
| 2026-05-05 19:45 | 51.47398 | -0.46736 | 92 ft | 14 kts | 168° |
| 2026-05-05 19:45 | 51.47299 | -0.46728 | 92 ft | 14 kts | 180° |
| 2026-05-05 19:46 | 51.47199 | -0.46728 | 92 ft | 14 kts | 179° |
| 2026-05-05 19:46 | 51.47097 | -0.46729 | 92 ft | 14 kts | 179° |
| 2026-05-05 19:46 | 51.47002 | -0.46675 | 92 ft | 14 kts | 142° |
| 2026-05-05 19:46 | 51.46917 | -0.46582 | 92 ft | 15 kts | 146° |
| 2026-05-05 19:47 | 51.46830 | -0.46486 | 92 ft | 15 kts | 144° |
| 2026-05-05 19:47 | 51.46741 | -0.46421 | 92 ft | 13 kts | 174° |
| 2026-05-05 19:47 | 51.46661 | -0.46382 | 92 ft | 12 kts | 117° |
| 2026-05-05 19:47 | 51.46659 | -0.46245 | 92 ft | 12 kts | 88° |
| 2026-05-05 19:48 | 51.46659 | -0.46065 | 92 ft | 21 kts | 91° |
| 2026-05-05 19:48 | 51.46574 | -0.45873 | 92 ft | 23 kts | 145° |
| 2026-05-05 19:48 | 51.46436 | -0.45725 | 92 ft | 24 kts | 145° |
| 2026-05-05 19:48 | 51.46353 | -0.45632 | 92 ft | 1 kts | 145° |
| 2026-05-05 19:49 | 51.46350 | -0.45629 | 92 ft | 1 kts | 145° |
| 2026-05-05 19:49 | 51.46344 | -0.45622 | 92 ft | 2 kts | 145° |
| 2026-05-05 19:49 | 51.46283 | -0.45556 | 92 ft | 9 kts | 141° |
| 2026-05-05 19:49 | 51.46241 | -0.45580 | 92 ft | 6 kts | 239° |
| 2026-05-05 19:50 | 51.46224 | -0.45622 | 92 ft | 0 kts | 235° |
| 2026-05-05 19:50 | 51.46223 | -0.45625 | 92 ft | 0 kts | 235° |
| 2026-05-05 19:50 | 51.46221 | -0.45629 | 92 ft | 0 kts | 235° |